sensor_id;sensor_type;location;lat;lon;timestamp;P1;durP1;ratioP1;P2;durP2;ratioP2
75061;SDS011;63641;46.526;24.612;2022-11-15T00:00:55;25.77;;;20.15;;
75061;SDS011;63641;46.526;24.612;2022-11-15T00:03:23;40.50;;;23.52;;
75061;SDS011;63641;46.526;24.612;2022-11-15T00:05:51;31.52;;;23.88;;
75061;SDS011;63641;46.526;24.612;2022-11-15T00:08:18;50.22;;;25.15;;
75061;SDS011;63641;46.526;24.612;2022-11-15T00:10:57;35.67;;;24.70;;
75061;SDS011;63641;46.526;24.612;2022-11-15T00:13:26;37.13;;;24.27;;
75061;SDS011;63641;46.526;24.612;2022-11-15T00:15:56;26.52;;;24.10;;
75061;SDS011;63641;46.526;24.612;2022-11-15T00:18:24;35.05;;;24.85;;
75061;SDS011;63641;46.526;24.612;2022-11-15T00:20:52;37.97;;;21.80;;
75061;SDS011;63641;46.526;24.612;2022-11-15T00:23:18;43.85;;;19.65;;
75061;SDS011;63641;46.526;24.612;2022-11-15T00:25:45;46.15;;;22.25;;
75061;SDS011;63641;46.526;24.612;2022-11-15T00:28:12;27.13;;;19.83;;
75061;SDS011;63641;46.526;24.612;2022-11-15T00:30:39;37.75;;;20.80;;
75061;SDS011;63641;46.526;24.612;2022-11-15T00:33:06;38.78;;;22.98;;
75061;SDS011;63641;46.526;24.612;2022-11-15T00:35:33;32.92;;;18.63;;
75061;SDS011;63641;46.526;24.612;2022-11-15T00:38:01;22.92;;;20.58;;
75061;SDS011;63641;46.526;24.612;2022-11-15T00:40:29;39.10;;;25.05;;
75061;SDS011;63641;46.526;24.612;2022-11-15T00:42:56;45.08;;;20.30;;
75061;SDS011;63641;46.526;24.612;2022-11-15T00:45:22;47.92;;;21.67;;
75061;SDS011;63641;46.526;24.612;2022-11-15T00:47:50;71.75;;;21.85;;
75061;SDS011;63641;46.526;24.612;2022-11-15T00:50:17;58.17;;;20.60;;
75061;SDS011;63641;46.526;24.612;2022-11-15T00:52:44;70.85;;;16.23;;
75061;SDS011;63641;46.526;24.612;2022-11-15T00:55:18;81.95;;;17.67;;
75061;SDS011;63641;46.526;24.612;2022-11-15T00:57:45;61.03;;;18.65;;
75061;SDS011;63641;46.526;24.612;2022-11-15T01:00:13;62.25;;;16.95;;
75061;SDS011;63641;46.526;24.612;2022-11-15T01:02:40;42.30;;;17.20;;
75061;SDS011;63641;46.526;24.612;2022-11-15T01:05:07;97.60;;;21.42;;
75061;SDS011;63641;46.526;24.612;2022-11-15T01:07:34;68.35;;;24.17;;
75061;SDS011;63641;46.526;24.612;2022-11-15T01:10:01;74.78;;;23.80;;
75061;SDS011;63641;46.526;24.612;2022-11-15T01:12:28;68.05;;;26.33;;
75061;SDS011;63641;46.526;24.612;2022-11-15T01:14:55;56.58;;;26.30;;
75061;SDS011;63641;46.526;24.612;2022-11-15T01:17:22;38.75;;;24.65;;
75061;SDS011;63641;46.526;24.612;2022-11-15T01:19:49;41.00;;;26.20;;
75061;SDS011;63641;46.526;24.612;2022-11-15T01:22:16;28.77;;;26.25;;
75061;SDS011;63641;46.526;24.612;2022-11-15T01:24:42;49.08;;;31.77;;
75061;SDS011;63641;46.526;24.612;2022-11-15T01:27:09;33.28;;;31.00;;
75061;SDS011;63641;46.526;24.612;2022-11-15T01:29:36;42.65;;;31.70;;
75061;SDS011;63641;46.526;24.612;2022-11-15T01:32:03;50.97;;;35.88;;
75061;SDS011;63641;46.526;24.612;2022-11-15T01:34:30;43.05;;;38.90;;
75061;SDS011;63641;46.526;24.612;2022-11-15T01:36:56;44.00;;;31.88;;
75061;SDS011;63641;46.526;24.612;2022-11-15T01:39:23;46.38;;;40.47;;
75061;SDS011;63641;46.526;24.612;2022-11-15T01:41:50;55.33;;;31.75;;
75061;SDS011;63641;46.526;24.612;2022-11-15T01:47:17;45.17;;;35.35;;
75061;SDS011;63641;46.526;24.612;2022-11-15T01:50:00;47.20;;;39.10;;
75061;SDS011;63641;46.526;24.612;2022-11-15T01:52:30;51.92;;;43.22;;
75061;SDS011;63641;46.526;24.612;2022-11-15T01:57:29;49.20;;;43.28;;
75061;SDS011;63641;46.526;24.612;2022-11-15T01:59:57;66.78;;;44.03;;
75061;SDS011;63641;46.526;24.612;2022-11-15T02:02:26;69.85;;;49.13;;
75061;SDS011;63641;46.526;24.612;2022-11-15T02:04:53;63.00;;;58.40;;
75061;SDS011;63641;46.526;24.612;2022-11-15T02:07:21;54.28;;;48.75;;
75061;SDS011;63641;46.526;24.612;2022-11-15T02:09:49;59.08;;;53.20;;
75061;SDS011;63641;46.526;24.612;2022-11-15T02:12:18;71.35;;;49.88;;
75061;SDS011;63641;46.526;24.612;2022-11-15T02:14:48;104.65;;;54.45;;
75061;SDS011;63641;46.526;24.612;2022-11-15T02:31:03;46.78;;;32.88;;
75061;SDS011;63641;46.526;24.612;2022-11-15T02:44:22;29.90;;;25.20;;
75061;SDS011;63641;46.526;24.612;2022-11-15T02:46:58;38.42;;;25.23;;
75061;SDS011;63641;46.526;24.612;2022-11-15T02:49:41;28.80;;;22.45;;
75061;SDS011;63641;46.526;24.612;2022-11-15T02:52:18;33.45;;;30.77;;
75061;SDS011;63641;46.526;24.612;2022-11-15T02:54:54;35.30;;;32.85;;
75061;SDS011;63641;46.526;24.612;2022-11-15T02:57:30;33.72;;;30.92;;
75061;SDS011;63641;46.526;24.612;2022-11-15T03:00:13;30.98;;;28.17;;
75061;SDS011;63641;46.526;24.612;2022-11-15T03:05:37;30.50;;;27.02;;
75061;SDS011;63641;46.526;24.612;2022-11-15T03:13:46;31.42;;;28.85;;
75061;SDS011;63641;46.526;24.612;2022-11-15T03:16:31;32.08;;;25.15;;
75061;SDS011;63641;46.526;24.612;2022-11-15T03:19:21;32.65;;;25.02;;
75061;SDS011;63641;46.526;24.612;2022-11-15T03:21:56;23.80;;;20.05;;
75061;SDS011;63641;46.526;24.612;2022-11-15T03:24:26;48.60;;;21.80;;
75061;SDS011;63641;46.526;24.612;2022-11-15T03:26:58;29.48;;;23.90;;
75061;SDS011;63641;46.526;24.612;2022-11-15T03:29:27;41.35;;;24.77;;
75061;SDS011;63641;46.526;24.612;2022-11-15T03:32:01;34.28;;;23.02;;
75061;SDS011;63641;46.526;24.612;2022-11-15T03:34:52;34.30;;;23.38;;
75061;SDS011;63641;46.526;24.612;2022-11-15T03:38:09;63.35;;;23.60;;
75061;SDS011;63641;46.526;24.612;2022-11-15T03:40:16;42.90;;;22.10;;
75061;SDS011;63641;46.526;24.612;2022-11-15T03:46:04;28.13;;;15.65;;
75061;SDS011;63641;46.526;24.612;2022-11-15T03:48:39;25.20;;;20.25;;
75061;SDS011;63641;46.526;24.612;2022-11-15T03:51:10;68.30;;;18.30;;
75061;SDS011;63641;46.526;24.612;2022-11-15T03:53:37;37.50;;;15.80;;
75061;SDS011;63641;46.526;24.612;2022-11-15T03:56:04;54.58;;;16.33;;
75061;SDS011;63641;46.526;24.612;2022-11-15T03:58:31;95.05;;;17.80;;
75061;SDS011;63641;46.526;24.612;2022-11-15T04:00:57;84.18;;;18.20;;
75061;SDS011;63641;46.526;24.612;2022-11-15T04:03:25;102.75;;;20.20;;
75061;SDS011;63641;46.526;24.612;2022-11-15T04:05:52;125.65;;;18.95;;
75061;SDS011;63641;46.526;24.612;2022-11-15T04:08:19;53.60;;;18.83;;
75061;SDS011;63641;46.526;24.612;2022-11-15T04:10:48;166.77;;;21.30;;
75061;SDS011;63641;46.526;24.612;2022-11-15T04:13:15;84.10;;;20.77;;
75061;SDS011;63641;46.526;24.612;2022-11-15T04:15:42;91.15;;;22.77;;
75061;SDS011;63641;46.526;24.612;2022-11-15T04:18:08;117.60;;;21.75;;
75061;SDS011;63641;46.526;24.612;2022-11-15T04:20:35;129.63;;;19.10;;
75061;SDS011;63641;46.526;24.612;2022-11-15T04:23:22;94.70;;;17.83;;
75061;SDS011;63641;46.526;24.612;2022-11-15T04:26:08;74.32;;;18.05;;
75061;SDS011;63641;46.526;24.612;2022-11-15T04:28:41;73.70;;;21.10;;
75061;SDS011;63641;46.526;24.612;2022-11-15T04:31:27;90.60;;;19.40;;
75061;SDS011;63641;46.526;24.612;2022-11-15T04:33:54;68.30;;;19.80;;
75061;SDS011;63641;46.526;24.612;2022-11-15T04:36:21;77.10;;;19.13;;
75061;SDS011;63641;46.526;24.612;2022-11-15T04:39:07;68.47;;;21.13;;
75061;SDS011;63641;46.526;24.612;2022-11-15T04:41:34;97.95;;;23.33;;
75061;SDS011;63641;46.526;24.612;2022-11-15T04:44:01;105.25;;;22.50;;
75061;SDS011;63641;46.526;24.612;2022-11-15T04:46:27;121.75;;;22.98;;
75061;SDS011;63641;46.526;24.612;2022-11-15T04:48:54;120.68;;;27.85;;
75061;SDS011;63641;46.526;24.612;2022-11-15T04:51:24;96.65;;;25.25;;
75061;SDS011;63641;46.526;24.612;2022-11-15T04:53:51;94.25;;;24.25;;
75061;SDS011;63641;46.526;24.612;2022-11-15T04:56:18;84.43;;;21.35;;
75061;SDS011;63641;46.526;24.612;2022-11-15T04:58:48;123.35;;;20.65;;
75061;SDS011;63641;46.526;24.612;2022-11-15T05:01:15;91.63;;;26.48;;
75061;SDS011;63641;46.526;24.612;2022-11-15T05:03:42;54.35;;;35.42;;
75061;SDS011;63641;46.526;24.612;2022-11-15T05:06:28;98.43;;;34.90;;
75061;SDS011;63641;46.526;24.612;2022-11-15T05:08:56;86.13;;;33.30;;
75061;SDS011;63641;46.526;24.612;2022-11-15T05:11:23;62.58;;;32.83;;
75061;SDS011;63641;46.526;24.612;2022-11-15T05:13:50;83.90;;;34.33;;
75061;SDS011;63641;46.526;24.612;2022-11-15T05:16:17;96.53;;;29.95;;
75061;SDS011;63641;46.526;24.612;2022-11-15T05:18:44;83.97;;;32.92;;
75061;SDS011;63641;46.526;24.612;2022-11-15T05:21:12;97.88;;;31.15;;
75061;SDS011;63641;46.526;24.612;2022-11-15T05:23:40;113.70;;;37.25;;
75061;SDS011;63641;46.526;24.612;2022-11-15T05:26:07;89.05;;;34.75;;
75061;SDS011;63641;46.526;24.612;2022-11-15T05:28:35;1530.28;;;135.10;;
75061;SDS011;63641;46.526;24.612;2022-11-15T05:31:06;1999.90;;;206.10;;
75061;SDS011;63641;46.526;24.612;2022-11-15T05:33:38;1999.90;;;226.13;;
75061;SDS011;63641;46.526;24.612;2022-11-15T05:36:51;771.80;;;79.93;;
75061;SDS011;63641;46.526;24.612;2022-11-15T05:39:07;1999.90;;;225.05;;
75061;SDS011;63641;46.526;24.612;2022-11-15T05:41:41;1999.90;;;194.38;;
75061;SDS011;63641;46.526;24.612;2022-11-15T05:44:13;96.80;;;55.05;;
75061;SDS011;63641;46.526;24.612;2022-11-15T05:46:44;689.95;;;82.35;;
75061;SDS011;63641;46.526;24.612;2022-11-15T05:49:12;739.90;;;82.68;;
75061;SDS011;63641;46.526;24.612;2022-11-15T05:51:42;249.45;;;47.75;;
75061;SDS011;63641;46.526;24.612;2022-11-15T05:54:10;883.20;;;81.25;;
75061;SDS011;63641;46.526;24.612;2022-11-15T05:56:38;1798.53;;;124.45;;
75061;SDS011;63641;46.526;24.612;2022-11-15T05:59:05;104.43;;;37.67;;
75061;SDS011;63641;46.526;24.612;2022-11-15T06:01:33;425.40;;;44.88;;
75061;SDS011;63641;46.526;24.612;2022-11-15T06:04:00;521.58;;;68.53;;
75061;SDS011;63641;46.526;24.612;2022-11-15T06:06:27;166.13;;;59.60;;
75061;SDS011;63641;46.526;24.612;2022-11-15T06:08:55;223.95;;;50.60;;
75061;SDS011;63641;46.526;24.612;2022-11-15T06:11:22;59.97;;;51.75;;
75061;SDS011;63641;46.526;24.612;2022-11-15T06:13:48;60.22;;;53.83;;
75061;SDS011;63641;46.526;24.612;2022-11-15T06:16:15;57.35;;;51.03;;
75061;SDS011;63641;46.526;24.612;2022-11-15T06:18:41;51.53;;;47.03;;
75061;SDS011;63641;46.526;24.612;2022-11-15T06:21:09;40.55;;;35.40;;
75061;SDS011;63641;46.526;24.612;2022-11-15T06:23:35;48.72;;;40.00;;
75061;SDS011;63641;46.526;24.612;2022-11-15T06:26:02;35.28;;;27.88;;
75061;SDS011;63641;46.526;24.612;2022-11-15T06:28:30;1007.72;;;74.65;;
75061;SDS011;63641;46.526;24.612;2022-11-15T06:31:05;760.67;;;62.55;;
75061;SDS011;63641;46.526;24.612;2022-11-15T06:33:33;146.90;;;58.28;;
75061;SDS011;63641;46.526;24.612;2022-11-15T06:36:01;222.00;;;47.80;;
75061;SDS011;63641;46.526;24.612;2022-11-15T06:38:32;197.57;;;37.13;;
75061;SDS011;63641;46.526;24.612;2022-11-15T06:41:02;707.95;;;73.40;;
75061;SDS011;63641;46.526;24.612;2022-11-15T06:43:34;87.90;;;48.25;;
75061;SDS011;63641;46.526;24.612;2022-11-15T06:46:02;53.58;;;39.83;;
75061;SDS011;63641;46.526;24.612;2022-11-15T06:48:30;104.10;;;37.00;;
75061;SDS011;63641;46.526;24.612;2022-11-15T06:50:58;47.55;;;42.78;;
75061;SDS011;63641;46.526;24.612;2022-11-15T06:53:27;74.35;;;31.08;;
75061;SDS011;63641;46.526;24.612;2022-11-15T06:55:57;41.17;;;31.35;;
75061;SDS011;63641;46.526;24.612;2022-11-15T06:58:25;31.35;;;26.67;;
75061;SDS011;63641;46.526;24.612;2022-11-15T07:00:51;31.52;;;28.85;;
75061;SDS011;63641;46.526;24.612;2022-11-15T07:03:18;36.95;;;33.08;;
75061;SDS011;63641;46.526;24.612;2022-11-15T07:05:54;89.55;;;60.33;;
75061;SDS011;63641;46.526;24.612;2022-11-15T07:08:23;73.85;;;50.17;;
75061;SDS011;63641;46.526;24.612;2022-11-15T07:10:53;38.65;;;27.67;;
75061;SDS011;63641;46.526;24.612;2022-11-15T07:13:24;45.35;;;28.45;;
75061;SDS011;63641;46.526;24.612;2022-11-15T07:15:52;59.63;;;26.02;;
75061;SDS011;63641;46.526;24.612;2022-11-15T07:18:18;51.13;;;41.25;;
75061;SDS011;63641;46.526;24.612;2022-11-15T07:20:45;57.40;;;28.70;;
75061;SDS011;63641;46.526;24.612;2022-11-15T07:23:12;49.55;;;44.65;;
75061;SDS011;63641;46.526;24.612;2022-11-15T07:25:39;54.35;;;31.45;;
75061;SDS011;63641;46.526;24.612;2022-11-15T07:28:06;37.33;;;33.35;;
75061;SDS011;63641;46.526;24.612;2022-11-15T07:30:33;35.15;;;29.50;;
75061;SDS011;63641;46.526;24.612;2022-11-15T07:33:00;37.00;;;31.45;;
75061;SDS011;63641;46.526;24.612;2022-11-15T07:35:27;36.78;;;32.78;;
75061;SDS011;63641;46.526;24.612;2022-11-15T07:37:59;39.28;;;33.72;;
75061;SDS011;63641;46.526;24.612;2022-11-15T07:40:27;52.85;;;38.42;;
75061;SDS011;63641;46.526;24.612;2022-11-15T07:43:03;39.85;;;36.95;;
75061;SDS011;63641;46.526;24.612;2022-11-15T07:45:31;413.75;;;44.90;;
75061;SDS011;63641;46.526;24.612;2022-11-15T07:48:01;380.60;;;51.50;;
75061;SDS011;63641;46.526;24.612;2022-11-15T07:50:27;274.65;;;54.90;;
75061;SDS011;63641;46.526;24.612;2022-11-15T07:52:56;81.47;;;55.47;;
75061;SDS011;63641;46.526;24.612;2022-11-15T07:55:25;55.97;;;47.53;;
75061;SDS011;63641;46.526;24.612;2022-11-15T07:57:53;75.68;;;37.75;;
75061;SDS011;63641;46.526;24.612;2022-11-15T08:00:27;40.80;;;33.38;;
75061;SDS011;63641;46.526;24.612;2022-11-15T08:03:00;43.20;;;31.02;;
75061;SDS011;63641;46.526;24.612;2022-11-15T08:05:38;39.55;;;35.80;;
75061;SDS011;63641;46.526;24.612;2022-11-15T08:08:06;47.65;;;31.40;;
75061;SDS011;63641;46.526;24.612;2022-11-15T08:10:34;31.23;;;28.63;;
75061;SDS011;63641;46.526;24.612;2022-11-15T08:13:07;36.45;;;31.10;;
75061;SDS011;63641;46.526;24.612;2022-11-15T08:15:35;46.45;;;29.35;;
75061;SDS011;63641;46.526;24.612;2022-11-15T08:18:05;37.70;;;32.78;;
75061;SDS011;63641;46.526;24.612;2022-11-15T08:20:33;60.13;;;28.45;;
75061;SDS011;63641;46.526;24.612;2022-11-15T08:23:01;68.80;;;32.38;;
75061;SDS011;63641;46.526;24.612;2022-11-15T08:25:30;73.35;;;43.20;;
75061;SDS011;63641;46.526;24.612;2022-11-15T08:28:02;50.42;;;32.92;;
75061;SDS011;63641;46.526;24.612;2022-11-15T08:30:34;43.27;;;29.97;;
75061;SDS011;63641;46.526;24.612;2022-11-15T08:33:03;30.60;;;27.13;;
75061;SDS011;63641;46.526;24.612;2022-11-15T08:35:30;29.20;;;26.45;;
75061;SDS011;63641;46.526;24.612;2022-11-15T08:37:57;38.05;;;26.75;;
75061;SDS011;63641;46.526;24.612;2022-11-15T08:40:24;35.15;;;25.08;;
75061;SDS011;63641;46.526;24.612;2022-11-15T08:42:51;88.75;;;27.42;;
75061;SDS011;63641;46.526;24.612;2022-11-15T08:45:17;52.92;;;32.90;;
75061;SDS011;63641;46.526;24.612;2022-11-15T08:47:44;38.25;;;34.65;;
75061;SDS011;63641;46.526;24.612;2022-11-15T08:50:19;38.38;;;34.35;;
75061;SDS011;63641;46.526;24.612;2022-11-15T08:52:46;35.05;;;31.55;;
75061;SDS011;63641;46.526;24.612;2022-11-15T08:55:14;30.65;;;27.52;;
75061;SDS011;63641;46.526;24.612;2022-11-15T08:57:43;31.70;;;28.58;;
75061;SDS011;63641;46.526;24.612;2022-11-15T09:00:10;36.92;;;31.92;;
75061;SDS011;63641;46.526;24.612;2022-11-15T09:02:39;38.50;;;33.42;;
75061;SDS011;63641;46.526;24.612;2022-11-15T09:05:06;39.80;;;35.92;;
75061;SDS011;63641;46.526;24.612;2022-11-15T09:07:33;31.90;;;28.42;;
75061;SDS011;63641;46.526;24.612;2022-11-15T09:10:00;31.42;;;28.48;;
75061;SDS011;63641;46.526;24.612;2022-11-15T09:12:27;32.20;;;29.08;;
75061;SDS011;63641;46.526;24.612;2022-11-15T09:14:54;53.30;;;49.03;;
75061;SDS011;63641;46.526;24.612;2022-11-15T09:17:21;35.63;;;32.08;;
75061;SDS011;63641;46.526;24.612;2022-11-15T09:19:50;36.40;;;26.20;;
75061;SDS011;63641;46.526;24.612;2022-11-15T09:22:17;36.13;;;32.67;;
75061;SDS011;63641;46.526;24.612;2022-11-15T09:24:44;48.55;;;29.20;;
75061;SDS011;63641;46.526;24.612;2022-11-15T09:27:11;31.15;;;28.35;;
75061;SDS011;63641;46.526;24.612;2022-11-15T09:29:39;31.50;;;28.60;;
75061;SDS011;63641;46.526;24.612;2022-11-15T09:32:05;32.22;;;29.27;;
75061;SDS011;63641;46.526;24.612;2022-11-15T09:34:32;35.65;;;32.17;;
75061;SDS011;63641;46.526;24.612;2022-11-15T09:36:59;34.75;;;31.15;;
75061;SDS011;63641;46.526;24.612;2022-11-15T09:39:26;29.20;;;26.10;;
75061;SDS011;63641;46.526;24.612;2022-11-15T09:50:42;37.22;;;33.22;;
75061;SDS011;63641;46.526;24.612;2022-11-15T09:53:27;31.30;;;27.65;;
75061;SDS011;63641;46.526;24.612;2022-11-15T09:56:22;40.97;;;34.83;;
75061;SDS011;63641;46.526;24.612;2022-11-15T10:04:04;37.60;;;32.95;;
75061;SDS011;63641;46.526;24.612;2022-11-15T10:06:38;47.95;;;33.58;;
75061;SDS011;63641;46.526;24.612;2022-11-15T10:09:46;44.10;;;38.05;;
75061;SDS011;63641;46.526;24.612;2022-11-15T10:12:09;49.58;;;35.80;;
75061;SDS011;63641;46.526;24.612;2022-11-15T10:14:39;51.58;;;44.08;;
75061;SDS011;63641;46.526;24.612;2022-11-15T10:20:16;61.25;;;36.13;;
75061;SDS011;63641;46.526;24.612;2022-11-15T10:22:48;58.55;;;37.97;;
75061;SDS011;63641;46.526;24.612;2022-11-15T10:25:24;76.82;;;39.63;;
75061;SDS011;63641;46.526;24.612;2022-11-15T10:27:59;72.90;;;37.35;;
75061;SDS011;63641;46.526;24.612;2022-11-15T10:30:41;61.60;;;38.53;;
75061;SDS011;63641;46.526;24.612;2022-11-15T10:33:16;51.08;;;38.58;;
75061;SDS011;63641;46.526;24.612;2022-11-15T10:38:10;67.55;;;30.92;;
75061;SDS011;63641;46.526;24.612;2022-11-15T10:40:39;50.47;;;38.53;;
75061;SDS011;63641;46.526;24.612;2022-11-15T10:45:36;61.42;;;40.42;;
75061;SDS011;63641;46.526;24.612;2022-11-15T10:50:41;68.45;;;40.80;;
75061;SDS011;63641;46.526;24.612;2022-11-15T10:53:15;60.25;;;41.65;;
75061;SDS011;63641;46.526;24.612;2022-11-15T10:55:50;53.65;;;37.95;;
75061;SDS011;63641;46.526;24.612;2022-11-15T10:58:33;48.22;;;38.33;;
75061;SDS011;63641;46.526;24.612;2022-11-15T11:01:10;47.78;;;35.97;;
75061;SDS011;63641;46.526;24.612;2022-11-15T11:04:02;48.58;;;36.60;;
75061;SDS011;63641;46.526;24.612;2022-11-15T11:06:31;51.08;;;36.20;;
75061;SDS011;63641;46.526;24.612;2022-11-15T11:11:55;44.60;;;35.33;;
75061;SDS011;63641;46.526;24.612;2022-11-15T11:14:26;42.85;;;33.30;;
75061;SDS011;63641;46.526;24.612;2022-11-15T11:17:13;45.60;;;33.88;;
75061;SDS011;63641;46.526;24.612;2022-11-15T11:22:13;46.15;;;34.88;;
75061;SDS011;63641;46.526;24.612;2022-11-15T11:25:04;51.22;;;37.92;;
75061;SDS011;63641;46.526;24.612;2022-11-15T11:33:08;42.50;;;33.00;;
75061;SDS011;63641;46.526;24.612;2022-11-15T11:46:48;42.15;;;31.55;;
75061;SDS011;63641;46.526;24.612;2022-11-15T11:49:21;46.95;;;30.83;;
75061;SDS011;63641;46.526;24.612;2022-11-15T11:57:16;43.35;;;31.02;;
75061;SDS011;63641;46.526;24.612;2022-11-15T11:59:54;40.92;;;29.05;;
75061;SDS011;63641;46.526;24.612;2022-11-15T12:02:38;43.25;;;30.50;;
75061;SDS011;63641;46.526;24.612;2022-11-15T12:07:58;42.60;;;30.05;;
75061;SDS011;63641;46.526;24.612;2022-11-15T12:10:31;41.88;;;30.00;;
75061;SDS011;63641;46.526;24.612;2022-11-15T12:13:04;38.97;;;27.95;;
75061;SDS011;63641;46.526;24.612;2022-11-15T12:15:43;41.20;;;28.50;;
75061;SDS011;63641;46.526;24.612;2022-11-15T12:18:14;41.55;;;29.55;;
75061;SDS011;63641;46.526;24.612;2022-11-15T12:20:49;43.35;;;30.52;;
75061;SDS011;63641;46.526;24.612;2022-11-15T12:23:32;38.25;;;27.42;;
75061;SDS011;63641;46.526;24.612;2022-11-15T12:26:09;39.95;;;26.05;;
75061;SDS011;63641;46.526;24.612;2022-11-15T12:36:46;38.00;;;29.20;;
75061;SDS011;63641;46.526;24.612;2022-11-15T12:39:14;41.78;;;30.00;;
75061;SDS011;63641;46.526;24.612;2022-11-15T12:41:42;38.72;;;29.40;;
75061;SDS011;63641;46.526;24.612;2022-11-15T12:44:11;38.25;;;27.25;;
75061;SDS011;63641;46.526;24.612;2022-11-15T12:59:48;32.00;;;25.42;;
75061;SDS011;63641;46.526;24.612;2022-11-15T13:02:20;33.15;;;25.85;;
75061;SDS011;63641;46.526;24.612;2022-11-15T13:23:30;36.17;;;27.73;;
75061;SDS011;63641;46.526;24.612;2022-11-15T13:33:50;30.35;;;23.52;;
75061;SDS011;63641;46.526;24.612;2022-11-15T13:36:15;29.55;;;23.15;;
75061;SDS011;63641;46.526;24.612;2022-11-15T13:39:01;33.03;;;24.73;;
75061;SDS011;63641;46.526;24.612;2022-11-15T13:41:31;30.65;;;24.35;;
75061;SDS011;63641;46.526;24.612;2022-11-15T13:44:00;29.30;;;22.95;;
75061;SDS011;63641;46.526;24.612;2022-11-15T13:46:28;27.92;;;22.63;;
75061;SDS011;63641;46.526;24.612;2022-11-15T13:48:58;27.33;;;22.80;;
75061;SDS011;63641;46.526;24.612;2022-11-15T13:54:02;35.03;;;26.65;;
75061;SDS011;63641;46.526;24.612;2022-11-15T13:56:33;35.78;;;28.58;;
75061;SDS011;63641;46.526;24.612;2022-11-15T13:59:07;40.65;;;29.40;;
75061;SDS011;63641;46.526;24.612;2022-11-15T14:01:46;33.95;;;24.42;;
75061;SDS011;63641;46.526;24.612;2022-11-15T14:04:13;32.10;;;24.40;;
75061;SDS011;63641;46.526;24.612;2022-11-15T14:06:50;29.83;;;24.90;;
75061;SDS011;63641;46.526;24.612;2022-11-15T14:09:38;36.47;;;27.08;;
75061;SDS011;63641;46.526;24.612;2022-11-15T14:12:26;39.08;;;29.75;;
75061;SDS011;63641;46.526;24.612;2022-11-15T14:14:53;42.80;;;34.00;;
75061;SDS011;63641;46.526;24.612;2022-11-15T14:17:41;41.70;;;32.97;;
75061;SDS011;63641;46.526;24.612;2022-11-15T14:23:47;41.13;;;30.20;;
75061;SDS011;63641;46.526;24.612;2022-11-15T14:25:55;40.42;;;29.35;;
75061;SDS011;63641;46.526;24.612;2022-11-15T14:30:54;36.90;;;27.60;;
75061;SDS011;63641;46.526;24.612;2022-11-15T14:33:24;34.67;;;28.15;;
75061;SDS011;63641;46.526;24.612;2022-11-15T14:36:15;35.95;;;28.60;;
75061;SDS011;63641;46.526;24.612;2022-11-15T14:38:43;35.50;;;27.27;;
75061;SDS011;63641;46.526;24.612;2022-11-15T14:41:21;33.53;;;26.42;;
75061;SDS011;63641;46.526;24.612;2022-11-15T14:43:50;34.92;;;26.90;;
75061;SDS011;63641;46.526;24.612;2022-11-15T14:46:17;33.92;;;26.80;;
75061;SDS011;63641;46.526;24.612;2022-11-15T14:48:44;35.47;;;27.02;;
75061;SDS011;63641;46.526;24.612;2022-11-15T14:51:11;70.32;;;28.00;;
75061;SDS011;63641;46.526;24.612;2022-11-15T14:53:44;47.38;;;28.92;;
75061;SDS011;63641;46.526;24.612;2022-11-15T14:56:13;56.55;;;29.42;;
75061;SDS011;63641;46.526;24.612;2022-11-15T14:58:40;115.13;;;54.28;;
75061;SDS011;63641;46.526;24.612;2022-11-15T15:01:17;62.83;;;29.50;;
75061;SDS011;63641;46.526;24.612;2022-11-15T15:03:48;51.28;;;29.05;;
75061;SDS011;63641;46.526;24.612;2022-11-15T15:06:14;107.07;;;27.75;;
75061;SDS011;63641;46.526;24.612;2022-11-15T15:08:44;58.35;;;28.27;;
75061;SDS011;63641;46.526;24.612;2022-11-15T15:11:14;61.90;;;27.88;;
75061;SDS011;63641;46.526;24.612;2022-11-15T15:13:47;155.68;;;28.67;;
75061;SDS011;63641;46.526;24.612;2022-11-15T15:16:14;218.02;;;29.67;;
75061;SDS011;63641;46.526;24.612;2022-11-15T15:18:41;79.82;;;29.35;;
75061;SDS011;63641;46.526;24.612;2022-11-15T15:21:15;112.80;;;28.50;;
75061;SDS011;63641;46.526;24.612;2022-11-15T15:23:43;145.48;;;29.35;;
75061;SDS011;63641;46.526;24.612;2022-11-15T15:26:10;153.35;;;30.23;;
75061;SDS011;63641;46.526;24.612;2022-11-15T15:28:37;246.55;;;33.70;;
75061;SDS011;63641;46.526;24.612;2022-11-15T15:31:06;199.27;;;34.30;;
75061;SDS011;63641;46.526;24.612;2022-11-15T15:33:34;134.23;;;32.72;;
75061;SDS011;63641;46.526;24.612;2022-11-15T15:36:01;322.13;;;37.58;;
75061;SDS011;63641;46.526;24.612;2022-11-15T15:38:28;282.40;;;42.15;;
75061;SDS011;63641;46.526;24.612;2022-11-15T15:40:55;378.25;;;44.35;;
75061;SDS011;63641;46.526;24.612;2022-11-15T15:43:22;366.27;;;43.65;;
75061;SDS011;63641;46.526;24.612;2022-11-15T15:45:49;303.17;;;47.28;;
75061;SDS011;63641;46.526;24.612;2022-11-15T15:48:16;330.02;;;53.13;;
75061;SDS011;63641;46.526;24.612;2022-11-15T15:50:43;265.15;;;48.08;;
75061;SDS011;63641;46.526;24.612;2022-11-15T15:53:10;84.68;;;44.65;;
75061;SDS011;63641;46.526;24.612;2022-11-15T15:55:38;110.45;;;33.13;;
75061;SDS011;63641;46.526;24.612;2022-11-15T15:58:05;54.17;;;35.58;;
75061;SDS011;63641;46.526;24.612;2022-11-15T16:00:32;62.10;;;39.08;;
75061;SDS011;63641;46.526;24.612;2022-11-15T16:02:59;86.63;;;36.35;;
75061;SDS011;63641;46.526;24.612;2022-11-15T16:05:26;86.45;;;32.85;;
75061;SDS011;63641;46.526;24.612;2022-11-15T16:07:53;64.20;;;32.97;;
75061;SDS011;63641;46.526;24.612;2022-11-15T16:12:47;179.32;;;28.95;;
75061;SDS011;63641;46.526;24.612;2022-11-15T16:15:14;120.10;;;30.73;;
75061;SDS011;63641;46.526;24.612;2022-11-15T16:17:44;57.03;;;31.88;;
75061;SDS011;63641;46.526;24.612;2022-11-15T16:22:47;37.75;;;32.75;;
75061;SDS011;63641;46.526;24.612;2022-11-15T16:25:14;51.33;;;34.63;;
75061;SDS011;63641;46.526;24.612;2022-11-15T16:27:40;51.55;;;34.53;;
75061;SDS011;63641;46.526;24.612;2022-11-15T16:30:15;52.50;;;31.80;;
75061;SDS011;63641;46.526;24.612;2022-11-15T16:32:44;145.13;;;29.47;;
75061;SDS011;63641;46.526;24.612;2022-11-15T16:35:11;203.30;;;33.08;;
75061;SDS011;63641;46.526;24.612;2022-11-15T16:37:39;79.45;;;31.42;;
75061;SDS011;63641;46.526;24.612;2022-11-15T16:40:29;57.90;;;34.58;;
75061;SDS011;63641;46.526;24.612;2022-11-15T16:42:56;62.47;;;31.38;;
75061;SDS011;63641;46.526;24.612;2022-11-15T16:45:25;287.80;;;33.75;;
75061;SDS011;63641;46.526;24.612;2022-11-15T16:47:55;164.75;;;31.33;;
75061;SDS011;63641;46.526;24.612;2022-11-15T16:50:23;145.95;;;32.50;;
75061;SDS011;63641;46.526;24.612;2022-11-15T16:52:58;193.90;;;32.65;;
75061;SDS011;63641;46.526;24.612;2022-11-15T16:55:26;113.28;;;33.35;;
75061;SDS011;63641;46.526;24.612;2022-11-15T16:57:54;197.02;;;33.78;;
75061;SDS011;63641;46.526;24.612;2022-11-15T17:00:23;185.57;;;33.92;;
75061;SDS011;63641;46.526;24.612;2022-11-15T17:02:51;157.32;;;31.70;;